Denio, NV

07:50 PM PDT on 23. Júlí 2016 (GMT -0700)
Winnemucca Municipal | | Change Station

Elev 4311 ft 40.90 °N, 117.81 °W | Updated 54 minutes ago

Clear
Heiðskírt
89 °F
Feels Like 89 °F
N
7
Vindur Breytileg vindátt Vindur from NV

Í dag
High -- | Low -- °F
--% Chance of Precip.
Yesterday
High -- | Low -- °F
Precip. -- in
Loftþrýstingur 29.91 in
Skyggni 10.0 miles
Clouds Heiðskírt
Daggarmark 20 °F
Raki 8%
Rainfall 0.00 in
Snow Depth Not available.
5:39 AM 8:21 PM
Waning Gibbous, 80% visible
METAR KWMC 240156Z AUTO 32006KT 10SM CLR 32/M07 A3005 RMK AO2 SLP126 T03171067
Loftþrýstingur 29.91 in
Skyggni 10.0 miles
Clouds Heiðskírt
Daggarmark 20 °F
Raki 8%
Rainfall 0.00 in
Snow Depth Not available.
5:39 AM 8:21 PM
Waning Gibbous, 80% visible
METAR KWMC 240156Z AUTO 32006KT 10SM CLR 32/M07 A3005 RMK AO2 SLP126 T03171067

10-Day Weather Forecast

Almanac

Astronomy

Jul. 23, 2016 Rise Set
Actual Time
Civil Twilight
Nautical Twilight
Astronomical Twilight
Moon
Length Of Visible Light
Length of Day
Tomorrow will be .
, % of the Moon is Illuminated

Today's Extremes

State Highs State Lows

Community

WunderPhotos

Upload Photos

1,927,004 photos uploaded!

WunderBlog® & News

Nearby

Air Quality

  Air Quality AQ Index Pollutant
Not available.

Snow Depth

Station Depth Elevation

Earthquake Activity

Staður Distance Mag. Time & Date
Minimum magnitude displayed is 2.5.

Coastal Water Temperatures

Staður Hitastig

Stations

Nearby Weather Stations

Station Location Temp Vindkæling Daggarmark Raki Vindur Precip. Elev Uppfært Type
                   

Watches & Warnings

There are currently no watches in effect.